DAAY

Details ICAO DAAY
Name MECHERIA
Region Algeria
Timezone Africa/Algiers (UTC+1.0)
Plans Departing 1
Arriving 4
Stats Elevation 3,855 ft / 1,175 m (AMSL)
Location 33.528408° -0.240738°
Runways 2
Magnetic Variation 0.234° E
Sunrise 2018-05-21 04:58:14 UTC / 2018-05-21 05:58:14 Local
Sunset 2018-05-21 18:59:44 UTC / 2018-05-21 19:59:44 Local
Advertisement - Login to hide

Runways

ID Width Length Bearing (true) Bearing (mag) Surface Threshold Offset Overrun Length
06 150 ft / 46 m 11,784 ft / 3,592 m 50.86° 50.63° Asphalt 0 ft / 0 m 0 ft / 0 m
17 100 ft / 30 m 9,457 ft / 2,883 m 160.08° 159.85° Asphalt 0 ft / 0 m 0 ft / 0 m
24 150 ft / 46 m 11,784 ft / 3,592 m 230.88° 230.65° Asphalt 0 ft / 0 m 0 ft / 0 m
35 100 ft / 30 m 9,457 ft / 2,883 m 340.09° 339.86° Asphalt 0 ft / 0 m 0 ft / 0 m

Map

Weather


0- 5 10 15 20 25 30 35+ Temperature / ° C

Clouds and Precipitation
Forecast for 2018-05-21 18:00 UTC. Updated 2 hours ago

Ground ~20,000 ft ~40,000 ft Winds

METAR

DAAY 211900Z 24014KT 8000 SCT026TCU BKN030 16/11 Q1016

TAF

Not found
Warning: Do not use this data for real-world aviation or navigation. No guarantee of current accuracy is given.